sensor_id;sensor_type;location;lat;lon;timestamp;P1;durP1;ratioP1;P2;durP2;ratioP2
70829;SDS011;58451;51.550;7.208;2022-07-04T00:00:56;2.40;;;0.40;;
70829;SDS011;58451;51.550;7.208;2022-07-04T00:03:22;1.10;;;0.30;;
70829;SDS011;58451;51.550;7.208;2022-07-04T00:05:49;3.60;;;0.40;;
70829;SDS011;58451;51.550;7.208;2022-07-04T00:08:16;3.60;;;0.50;;
70829;SDS011;58451;51.550;7.208;2022-07-04T00:10:43;3.10;;;0.50;;
70829;SDS011;58451;51.550;7.208;2022-07-04T00:13:10;3.00;;;0.40;;
70829;SDS011;58451;51.550;7.208;2022-07-04T00:15:37;1.30;;;0.40;;
70829;SDS011;58451;51.550;7.208;2022-07-04T00:18:03;2.40;;;0.50;;
70829;SDS011;58451;51.550;7.208;2022-07-04T00:20:30;2.50;;;0.40;;
70829;SDS011;58451;51.550;7.208;2022-07-04T00:22:57;2.10;;;0.50;;
70829;SDS011;58451;51.550;7.208;2022-07-04T00:25:24;3.80;;;0.60;;
70829;SDS011;58451;51.550;7.208;2022-07-04T00:27:51;3.90;;;0.50;;
70829;SDS011;58451;51.550;7.208;2022-07-04T00:30:18;2.60;;;0.60;;
70829;SDS011;58451;51.550;7.208;2022-07-04T00:32:45;2.30;;;0.40;;
70829;SDS011;58451;51.550;7.208;2022-07-04T00:35:12;2.20;;;0.40;;
70829;SDS011;58451;51.550;7.208;2022-07-04T00:37:38;2.10;;;0.50;;
70829;SDS011;58451;51.550;7.208;2022-07-04T00:40:06;2.30;;;0.50;;
70829;SDS011;58451;51.550;7.208;2022-07-04T00:42:33;2.40;;;0.70;;
70829;SDS011;58451;51.550;7.208;2022-07-04T00:45:00;3.20;;;0.60;;
70829;SDS011;58451;51.550;7.208;2022-07-04T00:47:27;2.90;;;0.60;;
70829;SDS011;58451;51.550;7.208;2022-07-04T00:49:53;2.90;;;0.50;;
70829;SDS011;58451;51.550;7.208;2022-07-04T00:52:20;3.50;;;0.60;;
70829;SDS011;58451;51.550;7.208;2022-07-04T00:54:48;5.10;;;0.60;;
70829;SDS011;58451;51.550;7.208;2022-07-04T00:57:16;2.50;;;0.60;;
70829;SDS011;58451;51.550;7.208;2022-07-04T00:59:43;3.40;;;0.70;;
70829;SDS011;58451;51.550;7.208;2022-07-04T01:02:09;3.80;;;0.70;;
70829;SDS011;58451;51.550;7.208;2022-07-04T01:04:37;3.70;;;0.50;;
70829;SDS011;58451;51.550;7.208;2022-07-04T01:07:04;2.90;;;0.50;;
70829;SDS011;58451;51.550;7.208;2022-07-04T01:09:32;2.10;;;0.50;;
70829;SDS011;58451;51.550;7.208;2022-07-04T01:12:00;2.00;;;0.70;;
70829;SDS011;58451;51.550;7.208;2022-07-04T01:14:27;2.30;;;0.50;;
70829;SDS011;58451;51.550;7.208;2022-07-04T01:16:53;4.70;;;0.80;;
70829;SDS011;58451;51.550;7.208;2022-07-04T01:19:20;3.20;;;0.60;;
70829;SDS011;58451;51.550;7.208;2022-07-04T01:21:47;3.50;;;0.80;;
70829;SDS011;58451;51.550;7.208;2022-07-04T01:24:14;2.20;;;0.60;;
70829;SDS011;58451;51.550;7.208;2022-07-04T01:26:41;2.80;;;0.70;;
70829;SDS011;58451;51.550;7.208;2022-07-04T01:29:08;1.70;;;0.50;;
70829;SDS011;58451;51.550;7.208;2022-07-04T01:31:35;4.80;;;0.70;;
70829;SDS011;58451;51.550;7.208;2022-07-04T01:34:01;3.30;;;0.80;;
70829;SDS011;58451;51.550;7.208;2022-07-04T01:36:28;3.10;;;0.80;;
70829;SDS011;58451;51.550;7.208;2022-07-04T01:38:55;5.10;;;1.20;;
70829;SDS011;58451;51.550;7.208;2022-07-04T01:41:23;3.40;;;1.00;;
70829;SDS011;58451;51.550;7.208;2022-07-04T01:43:50;4.70;;;0.90;;
70829;SDS011;58451;51.550;7.208;2022-07-04T01:46:17;2.00;;;0.70;;
70829;SDS011;58451;51.550;7.208;2022-07-04T01:48:44;5.70;;;1.60;;
70829;SDS011;58451;51.550;7.208;2022-07-04T01:51:12;5.30;;;1.30;;
70829;SDS011;58451;51.550;7.208;2022-07-04T01:53:39;3.50;;;0.80;;
70829;SDS011;58451;51.550;7.208;2022-07-04T01:56:06;5.00;;;1.40;;
70829;SDS011;58451;51.550;7.208;2022-07-04T01:58:33;5.50;;;1.10;;
70829;SDS011;58451;51.550;7.208;2022-07-04T02:01:00;5.50;;;1.00;;
70829;SDS011;58451;51.550;7.208;2022-07-04T02:03:46;4.20;;;1.20;;
70829;SDS011;58451;51.550;7.208;2022-07-04T02:06:13;4.80;;;1.10;;
70829;SDS011;58451;51.550;7.208;2022-07-04T02:08:40;5.10;;;1.10;;
70829;SDS011;58451;51.550;7.208;2022-07-04T02:11:25;4.50;;;1.00;;
70829;SDS011;58451;51.550;7.208;2022-07-04T02:13:52;4.60;;;1.00;;
70829;SDS011;58451;51.550;7.208;2022-07-04T02:16:19;5.20;;;1.20;;
70829;SDS011;58451;51.550;7.208;2022-07-04T02:18:46;4.40;;;0.80;;
70829;SDS011;58451;51.550;7.208;2022-07-04T02:21:13;5.40;;;0.90;;
70829;SDS011;58451;51.550;7.208;2022-07-04T02:23:40;7.20;;;1.20;;
70829;SDS011;58451;51.550;7.208;2022-07-04T02:26:06;3.80;;;0.80;;
70829;SDS011;58451;51.550;7.208;2022-07-04T02:28:34;2.90;;;0.90;;
70829;SDS011;58451;51.550;7.208;2022-07-04T02:31:01;4.40;;;1.10;;
70829;SDS011;58451;51.550;7.208;2022-07-04T02:33:28;3.30;;;0.80;;
70829;SDS011;58451;51.550;7.208;2022-07-04T02:35:54;4.90;;;1.10;;
70829;SDS011;58451;51.550;7.208;2022-07-04T02:38:21;4.40;;;1.00;;
70829;SDS011;58451;51.550;7.208;2022-07-04T02:40:48;3.70;;;1.20;;
70829;SDS011;58451;51.550;7.208;2022-07-04T02:43:15;2.90;;;1.00;;
70829;SDS011;58451;51.550;7.208;2022-07-04T02:45:42;5.00;;;1.20;;
70829;SDS011;58451;51.550;7.208;2022-07-04T02:48:08;6.40;;;1.60;;
70829;SDS011;58451;51.550;7.208;2022-07-04T02:50:36;5.50;;;1.10;;
70829;SDS011;58451;51.550;7.208;2022-07-04T02:53:02;4.10;;;1.40;;
70829;SDS011;58451;51.550;7.208;2022-07-04T02:55:29;5.30;;;1.20;;
70829;SDS011;58451;51.550;7.208;2022-07-04T02:57:56;3.80;;;1.10;;
70829;SDS011;58451;51.550;7.208;2022-07-04T03:00:23;5.00;;;1.40;;
70829;SDS011;58451;51.550;7.208;2022-07-04T03:02:50;5.20;;;1.20;;
70829;SDS011;58451;51.550;7.208;2022-07-04T03:05:17;3.40;;;1.30;;
70829;SDS011;58451;51.550;7.208;2022-07-04T03:07:44;4.80;;;1.40;;
70829;SDS011;58451;51.550;7.208;2022-07-04T03:10:10;4.70;;;1.60;;
70829;SDS011;58451;51.550;7.208;2022-07-04T03:12:37;4.60;;;1.30;;
70829;SDS011;58451;51.550;7.208;2022-07-04T03:15:05;3.70;;;1.40;;
70829;SDS011;58451;51.550;7.208;2022-07-04T03:17:32;5.50;;;1.40;;
70829;SDS011;58451;51.550;7.208;2022-07-04T03:19:59;6.60;;;1.60;;
70829;SDS011;58451;51.550;7.208;2022-07-04T03:22:26;4.40;;;1.50;;
70829;SDS011;58451;51.550;7.208;2022-07-04T03:24:53;4.70;;;1.30;;
70829;SDS011;58451;51.550;7.208;2022-07-04T03:27:21;4.70;;;1.30;;
70829;SDS011;58451;51.550;7.208;2022-07-04T03:29:47;5.20;;;1.30;;
70829;SDS011;58451;51.550;7.208;2022-07-04T03:32:14;5.70;;;1.50;;
70829;SDS011;58451;51.550;7.208;2022-07-04T03:34:41;6.00;;;1.60;;
70829;SDS011;58451;51.550;7.208;2022-07-04T03:37:08;4.60;;;1.40;;
70829;SDS011;58451;51.550;7.208;2022-07-04T03:39:35;5.40;;;1.40;;
70829;SDS011;58451;51.550;7.208;2022-07-04T03:42:02;5.60;;;1.10;;
70829;SDS011;58451;51.550;7.208;2022-07-04T03:44:29;4.10;;;1.20;;
70829;SDS011;58451;51.550;7.208;2022-07-04T03:46:56;6.00;;;1.30;;
70829;SDS011;58451;51.550;7.208;2022-07-04T03:49:23;4.90;;;1.40;;
70829;SDS011;58451;51.550;7.208;2022-07-04T03:51:49;5.80;;;1.30;;
70829;SDS011;58451;51.550;7.208;2022-07-04T03:54:17;4.40;;;1.60;;
70829;SDS011;58451;51.550;7.208;2022-07-04T03:56:44;5.20;;;1.50;;
70829;SDS011;58451;51.550;7.208;2022-07-04T03:59:11;7.00;;;2.00;;
70829;SDS011;58451;51.550;7.208;2022-07-04T04:01:39;5.70;;;1.40;;
70829;SDS011;58451;51.550;7.208;2022-07-04T04:04:05;5.20;;;1.60;;
70829;SDS011;58451;51.550;7.208;2022-07-04T04:06:54;5.10;;;1.60;;
70829;SDS011;58451;51.550;7.208;2022-07-04T04:09:21;7.40;;;1.70;;
70829;SDS011;58451;51.550;7.208;2022-07-04T04:11:48;4.80;;;1.20;;
70829;SDS011;58451;51.550;7.208;2022-07-04T04:14:15;5.80;;;1.70;;
70829;SDS011;58451;51.550;7.208;2022-07-04T04:16:42;6.40;;;2.10;;
70829;SDS011;58451;51.550;7.208;2022-07-04T04:19:10;7.40;;;1.90;;
70829;SDS011;58451;51.550;7.208;2022-07-04T04:21:38;7.90;;;1.90;;
70829;SDS011;58451;51.550;7.208;2022-07-04T04:24:05;4.80;;;1.50;;
70829;SDS011;58451;51.550;7.208;2022-07-04T04:26:34;6.90;;;2.00;;
70829;SDS011;58451;51.550;7.208;2022-07-04T04:29:01;6.00;;;2.00;;
70829;SDS011;58451;51.550;7.208;2022-07-04T04:31:28;10.00;;;2.00;;
70829;SDS011;58451;51.550;7.208;2022-07-04T04:33:57;6.40;;;2.20;;
70829;SDS011;58451;51.550;7.208;2022-07-04T04:36:24;8.30;;;2.40;;
70829;SDS011;58451;51.550;7.208;2022-07-04T04:38:52;6.10;;;2.00;;
70829;SDS011;58451;51.550;7.208;2022-07-04T04:41:19;8.20;;;3.00;;
70829;SDS011;58451;51.550;7.208;2022-07-04T04:43:46;9.20;;;2.70;;
70829;SDS011;58451;51.550;7.208;2022-07-04T04:46:18;5.40;;;1.70;;
70829;SDS011;58451;51.550;7.208;2022-07-04T04:48:45;7.90;;;2.80;;
70829;SDS011;58451;51.550;7.208;2022-07-04T04:51:12;7.40;;;3.20;;
70829;SDS011;58451;51.550;7.208;2022-07-04T04:53:39;5.80;;;2.30;;
70829;SDS011;58451;51.550;7.208;2022-07-04T04:56:06;7.10;;;2.60;;
70829;SDS011;58451;51.550;7.208;2022-07-04T04:58:33;7.70;;;2.40;;
70829;SDS011;58451;51.550;7.208;2022-07-04T05:00:59;9.30;;;3.20;;
70829;SDS011;58451;51.550;7.208;2022-07-04T05:03:48;8.00;;;2.90;;
70829;SDS011;58451;51.550;7.208;2022-07-04T05:06:16;10.00;;;2.90;;
70829;SDS011;58451;51.550;7.208;2022-07-04T05:08:42;9.40;;;3.40;;
70829;SDS011;58451;51.550;7.208;2022-07-04T05:11:09;10.20;;;3.40;;
70829;SDS011;58451;51.550;7.208;2022-07-04T05:13:37;11.80;;;2.90;;
70829;SDS011;58451;51.550;7.208;2022-07-04T05:16:04;8.50;;;2.30;;
70829;SDS011;58451;51.550;7.208;2022-07-04T05:18:30;7.40;;;2.40;;
70829;SDS011;58451;51.550;7.208;2022-07-04T05:21:00;5.90;;;1.90;;
70829;SDS011;58451;51.550;7.208;2022-07-04T05:23:27;7.10;;;2.20;;
70829;SDS011;58451;51.550;7.208;2022-07-04T05:25:54;6.50;;;2.10;;
70829;SDS011;58451;51.550;7.208;2022-07-04T05:28:21;6.90;;;2.30;;
70829;SDS011;58451;51.550;7.208;2022-07-04T05:30:47;6.40;;;2.10;;
70829;SDS011;58451;51.550;7.208;2022-07-04T05:33:15;8.30;;;3.10;;
70829;SDS011;58451;51.550;7.208;2022-07-04T05:35:42;7.30;;;2.40;;
70829;SDS011;58451;51.550;7.208;2022-07-04T05:38:09;8.60;;;2.60;;
70829;SDS011;58451;51.550;7.208;2022-07-04T05:40:36;8.30;;;2.10;;
70829;SDS011;58451;51.550;7.208;2022-07-04T05:43:02;5.80;;;2.00;;
70829;SDS011;58451;51.550;7.208;2022-07-04T05:45:29;7.80;;;2.20;;
70829;SDS011;58451;51.550;7.208;2022-07-04T05:47:56;9.20;;;2.90;;
70829;SDS011;58451;51.550;7.208;2022-07-04T05:50:23;6.50;;;1.80;;
70829;SDS011;58451;51.550;7.208;2022-07-04T05:52:56;8.90;;;1.90;;
70829;SDS011;58451;51.550;7.208;2022-07-04T05:55:23;7.60;;;2.50;;
70829;SDS011;58451;51.550;7.208;2022-07-04T05:57:50;7.10;;;2.80;;
70829;SDS011;58451;51.550;7.208;2022-07-04T06:00:16;7.50;;;2.20;;
70829;SDS011;58451;51.550;7.208;2022-07-04T06:02:43;9.20;;;2.40;;
70829;SDS011;58451;51.550;7.208;2022-07-04T06:05:10;6.10;;;1.60;;
70829;SDS011;58451;51.550;7.208;2022-07-04T06:07:37;10.00;;;2.60;;
70829;SDS011;58451;51.550;7.208;2022-07-04T06:10:05;6.80;;;2.30;;
70829;SDS011;58451;51.550;7.208;2022-07-04T06:12:33;8.20;;;2.20;;
70829;SDS011;58451;51.550;7.208;2022-07-04T06:15:00;10.70;;;2.80;;
70829;SDS011;58451;51.550;7.208;2022-07-04T06:17:27;9.50;;;2.60;;
70829;SDS011;58451;51.550;7.208;2022-07-04T06:19:54;9.70;;;2.30;;
70829;SDS011;58451;51.550;7.208;2022-07-04T06:22:21;10.40;;;2.50;;
70829;SDS011;58451;51.550;7.208;2022-07-04T06:24:51;5.90;;;1.50;;
70829;SDS011;58451;51.550;7.208;2022-07-04T06:27:18;9.20;;;2.60;;
70829;SDS011;58451;51.550;7.208;2022-07-04T06:29:45;12.40;;;2.70;;
70829;SDS011;58451;51.550;7.208;2022-07-04T06:32:12;9.50;;;2.70;;
70829;SDS011;58451;51.550;7.208;2022-07-04T06:34:38;9.50;;;2.60;;
70829;SDS011;58451;51.550;7.208;2022-07-04T06:37:24;8.00;;;2.50;;
70829;SDS011;58451;51.550;7.208;2022-07-04T06:39:51;8.50;;;2.40;;
70829;SDS011;58451;51.550;7.208;2022-07-04T06:42:17;10.20;;;2.60;;
70829;SDS011;58451;51.550;7.208;2022-07-04T06:44:48;9.20;;;2.00;;
70829;SDS011;58451;51.550;7.208;2022-07-04T06:47:14;5.70;;;1.70;;
70829;SDS011;58451;51.550;7.208;2022-07-04T06:49:41;9.50;;;1.70;;
70829;SDS011;58451;51.550;7.208;2022-07-04T06:52:08;6.70;;;1.70;;
70829;SDS011;58451;51.550;7.208;2022-07-04T06:54:35;5.40;;;0.80;;
70829;SDS011;58451;51.550;7.208;2022-07-04T06:57:02;2.90;;;0.60;;
70829;SDS011;58451;51.550;7.208;2022-07-04T06:59:50;2.60;;;0.50;;
70829;SDS011;58451;51.550;7.208;2022-07-04T07:02:17;2.50;;;0.70;;
70829;SDS011;58451;51.550;7.208;2022-07-04T07:04:44;4.40;;;1.30;;
70829;SDS011;58451;51.550;7.208;2022-07-04T07:07:11;5.90;;;1.00;;
70829;SDS011;58451;51.550;7.208;2022-07-04T07:09:37;5.00;;;0.80;;
70829;SDS011;58451;51.550;7.208;2022-07-04T07:12:05;3.30;;;0.80;;
70829;SDS011;58451;51.550;7.208;2022-07-04T07:14:32;3.00;;;0.80;;
70829;SDS011;58451;51.550;7.208;2022-07-04T07:16:59;4.90;;;1.00;;
70829;SDS011;58451;51.550;7.208;2022-07-04T07:19:26;3.80;;;0.80;;
70829;SDS011;58451;51.550;7.208;2022-07-04T07:21:53;4.00;;;0.80;;
70829;SDS011;58451;51.550;7.208;2022-07-04T07:24:20;6.50;;;1.10;;
70829;SDS011;58451;51.550;7.208;2022-07-04T07:26:47;8.10;;;1.30;;
70829;SDS011;58451;51.550;7.208;2022-07-04T07:29:14;3.50;;;1.30;;
70829;SDS011;58451;51.550;7.208;2022-07-04T07:31:41;5.90;;;1.20;;
70829;SDS011;58451;51.550;7.208;2022-07-04T07:34:08;4.90;;;1.50;;
70829;SDS011;58451;51.550;7.208;2022-07-04T07:36:34;5.20;;;1.10;;
70829;SDS011;58451;51.550;7.208;2022-07-04T07:39:01;7.70;;;1.70;;
70829;SDS011;58451;51.550;7.208;2022-07-04T07:41:29;8.00;;;1.20;;
70829;SDS011;58451;51.550;7.208;2022-07-04T07:43:56;4.60;;;1.10;;
70829;SDS011;58451;51.550;7.208;2022-07-04T07:46:23;4.00;;;0.80;;
70829;SDS011;58451;51.550;7.208;2022-07-04T07:48:50;2.70;;;0.70;;
70829;SDS011;58451;51.550;7.208;2022-07-04T07:51:17;2.30;;;0.80;;
70829;SDS011;58451;51.550;7.208;2022-07-04T07:53:44;6.10;;;1.20;;
70829;SDS011;58451;51.550;7.208;2022-07-04T07:56:31;5.00;;;1.30;;
70829;SDS011;58451;51.550;7.208;2022-07-04T07:58:58;5.00;;;0.90;;
70829;SDS011;58451;51.550;7.208;2022-07-04T08:01:25;4.80;;;1.40;;
70829;SDS011;58451;51.550;7.208;2022-07-04T08:03:52;8.50;;;1.30;;
70829;SDS011;58451;51.550;7.208;2022-07-04T08:06:40;5.20;;;1.40;;
70829;SDS011;58451;51.550;7.208;2022-07-04T08:09:27;3.00;;;1.00;;
70829;SDS011;58451;51.550;7.208;2022-07-04T08:11:54;4.30;;;1.10;;
70829;SDS011;58451;51.550;7.208;2022-07-04T08:14:21;4.10;;;1.00;;
70829;SDS011;58451;51.550;7.208;2022-07-04T08:16:48;5.70;;;1.10;;
70829;SDS011;58451;51.550;7.208;2022-07-04T08:19:22;11.50;;;2.50;;
70829;SDS011;58451;51.550;7.208;2022-07-04T08:21:52;4.70;;;1.10;;
70829;SDS011;58451;51.550;7.208;2022-07-04T08:24:39;4.70;;;1.10;;
70829;SDS011;58451;51.550;7.208;2022-07-04T08:27:07;6.40;;;1.00;;
70829;SDS011;58451;51.550;7.208;2022-07-04T08:29:33;4.70;;;0.90;;
70829;SDS011;58451;51.550;7.208;2022-07-04T08:32:02;2.90;;;1.00;;
70829;SDS011;58451;51.550;7.208;2022-07-04T08:34:29;3.20;;;0.90;;
70829;SDS011;58451;51.550;7.208;2022-07-04T08:36:56;4.40;;;1.20;;
70829;SDS011;58451;51.550;7.208;2022-07-04T08:39:23;5.80;;;1.00;;
70829;SDS011;58451;51.550;7.208;2022-07-04T08:41:52;6.20;;;1.00;;
70829;SDS011;58451;51.550;7.208;2022-07-04T08:44:23;4.10;;;0.90;;
70829;SDS011;58451;51.550;7.208;2022-07-04T08:46:52;7.10;;;1.20;;
70829;SDS011;58451;51.550;7.208;2022-07-04T08:49:24;3.00;;;0.80;;
70829;SDS011;58451;51.550;7.208;2022-07-04T08:52:07;4.30;;;1.00;;
70829;SDS011;58451;51.550;7.208;2022-07-04T08:54:38;4.10;;;0.80;;
70829;SDS011;58451;51.550;7.208;2022-07-04T08:57:24;3.30;;;0.90;;
70829;SDS011;58451;51.550;7.208;2022-07-04T09:00:10;4.70;;;1.00;;
70829;SDS011;58451;51.550;7.208;2022-07-04T09:02:37;5.80;;;1.10;;
70829;SDS011;58451;51.550;7.208;2022-07-04T09:05:06;3.80;;;1.20;;
70829;SDS011;58451;51.550;7.208;2022-07-04T09:07:34;3.10;;;0.80;;
70829;SDS011;58451;51.550;7.208;2022-07-04T09:10:02;3.60;;;0.80;;
70829;SDS011;58451;51.550;7.208;2022-07-04T09:12:30;6.20;;;1.10;;
70829;SDS011;58451;51.550;7.208;2022-07-04T09:15:18;4.00;;;1.10;;
70829;SDS011;58451;51.550;7.208;2022-07-04T09:17:45;3.80;;;1.10;;
70829;SDS011;58451;51.550;7.208;2022-07-04T09:20:17;3.20;;;0.80;;
70829;SDS011;58451;51.550;7.208;2022-07-04T09:22:50;5.00;;;1.10;;
70829;SDS011;58451;51.550;7.208;2022-07-04T09:25:19;4.90;;;1.20;;
70829;SDS011;58451;51.550;7.208;2022-07-04T09:27:48;3.00;;;0.60;;
70829;SDS011;58451;51.550;7.208;2022-07-04T09:30:22;4.70;;;0.90;;
70829;SDS011;58451;51.550;7.208;2022-07-04T09:32:53;4.00;;;0.90;;
70829;SDS011;58451;51.550;7.208;2022-07-04T09:35:29;8.70;;;1.10;;
70829;SDS011;58451;51.550;7.208;2022-07-04T09:38:00;4.50;;;1.00;;
70829;SDS011;58451;51.550;7.208;2022-07-04T09:40:36;4.10;;;1.00;;
70829;SDS011;58451;51.550;7.208;2022-07-04T09:43:25;4.30;;;1.10;;
70829;SDS011;58451;51.550;7.208;2022-07-04T09:45:56;4.00;;;1.00;;
70829;SDS011;58451;51.550;7.208;2022-07-04T09:48:49;6.30;;;1.10;;
70829;SDS011;58451;51.550;7.208;2022-07-04T09:51:41;2.90;;;0.70;;
70829;SDS011;58451;51.550;7.208;2022-07-04T09:54:20;2.80;;;0.90;;
70829;SDS011;58451;51.550;7.208;2022-07-04T09:56:51;3.90;;;1.00;;
70829;SDS011;58451;51.550;7.208;2022-07-04T09:59:20;2.80;;;0.90;;
70829;SDS011;58451;51.550;7.208;2022-07-04T10:01:49;2.80;;;0.80;;
70829;SDS011;58451;51.550;7.208;2022-07-04T10:04:16;3.50;;;0.80;;
70829;SDS011;58451;51.550;7.208;2022-07-04T10:06:44;3.40;;;0.80;;
70829;SDS011;58451;51.550;7.208;2022-07-04T10:09:13;3.40;;;0.80;;
70829;SDS011;58451;51.550;7.208;2022-07-04T10:11:44;4.80;;;1.20;;
70829;SDS011;58451;51.550;7.208;2022-07-04T10:14:13;5.10;;;1.20;;
70829;SDS011;58451;51.550;7.208;2022-07-04T10:16:41;5.80;;;0.80;;
70829;SDS011;58451;51.550;7.208;2022-07-04T10:19:09;5.00;;;1.10;;
70829;SDS011;58451;51.550;7.208;2022-07-04T10:21:36;3.20;;;1.00;;
70829;SDS011;58451;51.550;7.208;2022-07-04T10:24:04;3.40;;;1.10;;
70829;SDS011;58451;51.550;7.208;2022-07-04T10:26:31;3.90;;;1.00;;
70829;SDS011;58451;51.550;7.208;2022-07-04T10:28:59;2.50;;;0.70;;
70829;SDS011;58451;51.550;7.208;2022-07-04T10:31:28;3.10;;;0.80;;
70829;SDS011;58451;51.550;7.208;2022-07-04T10:33:57;5.30;;;1.00;;
70829;SDS011;58451;51.550;7.208;2022-07-04T10:36:26;4.00;;;1.00;;
70829;SDS011;58451;51.550;7.208;2022-07-04T10:39:03;4.50;;;0.90;;
70829;SDS011;58451;51.550;7.208;2022-07-04T10:41:31;3.10;;;1.00;;
70829;SDS011;58451;51.550;7.208;2022-07-04T10:44:04;2.90;;;1.10;;
70829;SDS011;58451;51.550;7.208;2022-07-04T10:46:46;4.00;;;1.10;;
70829;SDS011;58451;51.550;7.208;2022-07-04T10:56:55;4.90;;;1.20;;
70829;SDS011;58451;51.550;7.208;2022-07-04T10:59:28;3.80;;;1.30;;
70829;SDS011;58451;51.550;7.208;2022-07-04T11:05:06;4.20;;;1.40;;
70829;SDS011;58451;51.550;7.208;2022-07-04T11:20:28;4.00;;;1.20;;
70829;SDS011;58451;51.550;7.208;2022-07-04T11:23:07;5.30;;;1.10;;
70829;SDS011;58451;51.550;7.208;2022-07-04T11:25:42;3.40;;;1.00;;
70829;SDS011;58451;51.550;7.208;2022-07-04T11:31:09;4.00;;;1.30;;
70829;SDS011;58451;51.550;7.208;2022-07-04T11:33:41;4.10;;;1.20;;
70829;SDS011;58451;51.550;7.208;2022-07-04T11:38:53;2.90;;;1.20;;
70829;SDS011;58451;51.550;7.208;2022-07-04T11:41:27;3.60;;;1.20;;
70829;SDS011;58451;51.550;7.208;2022-07-04T11:44:16;5.00;;;1.20;;
70829;SDS011;58451;51.550;7.208;2022-07-04T11:47:05;5.30;;;1.30;;
70829;SDS011;58451;51.550;7.208;2022-07-04T11:49:42;2.70;;;1.30;;
70829;SDS011;58451;51.550;7.208;2022-07-04T11:52:12;4.10;;;1.40;;
70829;SDS011;58451;51.550;7.208;2022-07-04T11:54:42;4.00;;;1.20;;
70829;SDS011;58451;51.550;7.208;2022-07-04T11:57:25;5.30;;;1.70;;
70829;SDS011;58451;51.550;7.208;2022-07-04T12:00:04;3.00;;;1.20;;
70829;SDS011;58451;51.550;7.208;2022-07-04T12:02:43;3.50;;;1.30;;
70829;SDS011;58451;51.550;7.208;2022-07-04T12:05:12;2.30;;;1.10;;
70829;SDS011;58451;51.550;7.208;2022-07-04T12:07:42;4.70;;;1.40;;
70829;SDS011;58451;51.550;7.208;2022-07-04T12:10:31;2.30;;;1.00;;
70829;SDS011;58451;51.550;7.208;2022-07-04T12:13:03;4.30;;;1.70;;
70829;SDS011;58451;51.550;7.208;2022-07-04T12:18:22;3.60;;;1.40;;
70829;SDS011;58451;51.550;7.208;2022-07-04T12:21:15;3.20;;;1.20;;
70829;SDS011;58451;51.550;7.208;2022-07-04T12:23:52;3.30;;;1.40;;
70829;SDS011;58451;51.550;7.208;2022-07-04T12:26:48;4.00;;;1.50;;
70829;SDS011;58451;51.550;7.208;2022-07-04T12:29:24;5.00;;;1.60;;
70829;SDS011;58451;51.550;7.208;2022-07-04T12:31:58;3.50;;;1.00;;
70829;SDS011;58451;51.550;7.208;2022-07-04T12:34:25;4.60;;;1.60;;
70829;SDS011;58451;51.550;7.208;2022-07-04T12:36:54;3.00;;;1.50;;
70829;SDS011;58451;51.550;7.208;2022-07-04T12:39:42;3.30;;;1.20;;
70829;SDS011;58451;51.550;7.208;2022-07-04T12:42:15;3.20;;;1.10;;
70829;SDS011;58451;51.550;7.208;2022-07-04T12:44:46;2.80;;;1.40;;
70829;SDS011;58451;51.550;7.208;2022-07-04T12:47:16;2.10;;;1.10;;
70829;SDS011;58451;51.550;7.208;2022-07-04T12:50:03;4.40;;;1.60;;
70829;SDS011;58451;51.550;7.208;2022-07-04T12:52:30;2.70;;;1.20;;
70829;SDS011;58451;51.550;7.208;2022-07-04T12:55:05;3.50;;;1.20;;
70829;SDS011;58451;51.550;7.208;2022-07-04T12:57:35;3.30;;;1.30;;
70829;SDS011;58451;51.550;7.208;2022-07-04T13:00:03;2.50;;;1.10;;
70829;SDS011;58451;51.550;7.208;2022-07-04T13:02:52;4.30;;;1.40;;
70829;SDS011;58451;51.550;7.208;2022-07-04T13:05:19;2.60;;;1.10;;
70829;SDS011;58451;51.550;7.208;2022-07-04T13:07:46;2.70;;;1.00;;
70829;SDS011;58451;51.550;7.208;2022-07-04T13:10:14;3.70;;;1.30;;
70829;SDS011;58451;51.550;7.208;2022-07-04T13:12:40;2.50;;;1.30;;
70829;SDS011;58451;51.550;7.208;2022-07-04T13:15:08;2.50;;;1.30;;
70829;SDS011;58451;51.550;7.208;2022-07-04T13:17:38;2.80;;;1.10;;
70829;SDS011;58451;51.550;7.208;2022-07-04T13:20:05;4.00;;;1.20;;
70829;SDS011;58451;51.550;7.208;2022-07-04T13:22:33;4.70;;;1.20;;
70829;SDS011;58451;51.550;7.208;2022-07-04T13:25:00;3.80;;;1.10;;
70829;SDS011;58451;51.550;7.208;2022-07-04T13:27:30;2.00;;;0.90;;
70829;SDS011;58451;51.550;7.208;2022-07-04T13:29:57;3.70;;;1.00;;
70829;SDS011;58451;51.550;7.208;2022-07-04T13:32:24;3.60;;;1.10;;
70829;SDS011;58451;51.550;7.208;2022-07-04T13:34:51;4.10;;;1.20;;
70829;SDS011;58451;51.550;7.208;2022-07-04T13:37:18;4.00;;;1.30;;
70829;SDS011;58451;51.550;7.208;2022-07-04T13:39:45;2.50;;;1.10;;
70829;SDS011;58451;51.550;7.208;2022-07-04T13:42:18;3.40;;;1.60;;
70829;SDS011;58451;51.550;7.208;2022-07-04T13:45:05;4.10;;;1.70;;
70829;SDS011;58451;51.550;7.208;2022-07-04T13:47:34;3.70;;;2.00;;
70829;SDS011;58451;51.550;7.208;2022-07-04T13:50:03;4.50;;;2.00;;
70829;SDS011;58451;51.550;7.208;2022-07-04T13:52:30;4.00;;;2.40;;
70829;SDS011;58451;51.550;7.208;2022-07-04T13:54:57;4.80;;;2.40;;
70829;SDS011;58451;51.550;7.208;2022-07-04T13:57:24;6.00;;;2.60;;
70829;SDS011;58451;51.550;7.208;2022-07-04T13:59:51;6.10;;;2.60;;
70829;SDS011;58451;51.550;7.208;2022-07-04T14:02:18;4.10;;;1.90;;
70829;SDS011;58451;51.550;7.208;2022-07-04T14:04:45;6.20;;;2.30;;
70829;SDS011;58451;51.550;7.208;2022-07-04T14:07:12;3.80;;;1.90;;
70829;SDS011;58451;51.550;7.208;2022-07-04T14:09:45;3.20;;;2.20;;
70829;SDS011;58451;51.550;7.208;2022-07-04T14:12:14;2.60;;;1.90;;
70829;SDS011;58451;51.550;7.208;2022-07-04T14:14:41;5.00;;;2.50;;
70829;SDS011;58451;51.550;7.208;2022-07-04T14:17:09;4.80;;;3.00;;
70829;SDS011;58451;51.550;7.208;2022-07-04T14:19:57;5.70;;;3.50;;
70829;SDS011;58451;51.550;7.208;2022-07-04T14:22:24;6.20;;;3.50;;
70829;SDS011;58451;51.550;7.208;2022-07-04T14:24:51;7.20;;;3.60;;
70829;SDS011;58451;51.550;7.208;2022-07-04T14:27:18;6.30;;;3.30;;
70829;SDS011;58451;51.550;7.208;2022-07-04T14:29:45;4.90;;;4.10;;
70829;SDS011;58451;51.550;7.208;2022-07-04T14:32:12;7.20;;;4.60;;
70829;SDS011;58451;51.550;7.208;2022-07-04T14:34:39;4.70;;;4.00;;
70829;SDS011;58451;51.550;7.208;2022-07-04T14:37:06;6.60;;;3.60;;
70829;SDS011;58451;51.550;7.208;2022-07-04T14:39:33;4.50;;;3.90;;
70829;SDS011;58451;51.550;7.208;2022-07-04T14:42:00;5.60;;;3.30;;
70829;SDS011;58451;51.550;7.208;2022-07-04T14:44:27;4.30;;;2.90;;
70829;SDS011;58451;51.550;7.208;2022-07-04T14:46:54;4.50;;;3.80;;
70829;SDS011;58451;51.550;7.208;2022-07-04T14:49:21;5.70;;;5.00;;
70829;SDS011;58451;51.550;7.208;2022-07-04T14:51:48;4.70;;;4.20;;
70829;SDS011;58451;51.550;7.208;2022-07-04T14:54:15;5.50;;;4.40;;
70829;SDS011;58451;51.550;7.208;2022-07-04T14:56:42;4.90;;;3.80;;
70829;SDS011;58451;51.550;7.208;2022-07-04T14:59:09;7.80;;;6.20;;
70829;SDS011;58451;51.550;7.208;2022-07-04T15:01:36;7.40;;;5.60;;
70829;SDS011;58451;51.550;7.208;2022-07-04T15:04:03;5.30;;;4.30;;
70829;SDS011;58451;51.550;7.208;2022-07-04T15:06:30;4.90;;;4.40;;
70829;SDS011;58451;51.550;7.208;2022-07-04T15:08:57;7.20;;;6.50;;
70829;SDS011;58451;51.550;7.208;2022-07-04T15:11:24;6.90;;;5.40;;
70829;SDS011;58451;51.550;7.208;2022-07-04T15:13:51;5.50;;;5.00;;
70829;SDS011;58451;51.550;7.208;2022-07-04T15:16:18;7.20;;;6.50;;
70829;SDS011;58451;51.550;7.208;2022-07-04T15:18:48;8.50;;;7.70;;
70829;SDS011;58451;51.550;7.208;2022-07-04T15:21:15;5.70;;;3.90;;
70829;SDS011;58451;51.550;7.208;2022-07-04T15:24:01;7.10;;;6.40;;
70829;SDS011;58451;51.550;7.208;2022-07-04T15:26:49;7.60;;;6.80;;
70829;SDS011;58451;51.550;7.208;2022-07-04T15:29:19;8.10;;;7.00;;
70829;SDS011;58451;51.550;7.208;2022-07-04T15:31:48;9.20;;;8.40;;
70829;SDS011;58451;51.550;7.208;2022-07-04T15:34:17;9.20;;;8.40;;